Time;durP1;ratioP1;P1;durP2;ratioP2;P2;SDS_P1;SDS_P2;PMS_P1;PMS_P2;Temp;Humidity;BMP_temperature;BMP_pressure;BME280_temperature;BME280_humidity;BME280_pressure;Samples;Min_cycle;Max_cycle;Signal;HPM_P1;HPM_P2
2022/03/23 00:00:10;;;;;;;304.25;126.18;;;1.50;99.90;;;;;;5053714;28;20032;-52
2022/03/23 00:02:39;;;;;;;323.83;127.63;;;1.40;99.90;;;;;;5054391;28;20037;-52
2022/03/23 00:05:05;;;;;;;289.73;120.35;;;1.30;99.90;;;;;;5057426;28;20440;-52
2022/03/23 00:07:32;;;;;;;266.17;115.18;;;1.30;99.90;;;;;;5057303;28;20493;-52
2022/03/23 00:09:58;;;;;;;293.42;120.72;;;1.30;99.90;;;;;;5057016;28;20486;-52
2022/03/23 00:12:24;;;;;;;309.65;126.40;;;1.40;99.90;;;;;;5057615;28;20025;-52
2022/03/23 00:14:50;;;;;;;362.85;137.57;;;1.40;99.90;;;;;;5057261;28;20056;-52
2022/03/23 00:17:16;;;;;;;366.10;141.73;;;1.40;99.90;;;;;;5056902;28;20500;-52
2022/03/23 00:19:42;;;;;;;342.00;134.73;;;1.30;99.90;;;;;;5057007;28;20382;-52
2022/03/23 00:22:08;;;;;;;342.75;131.75;;;1.30;99.90;;;;;;5057009;28;20025;-52
2022/03/23 00:24:34;;;;;;;317.73;130.20;;;1.20;99.90;;;;;;5057216;28;20532;-52
2022/03/23 00:27:00;;;;;;;295.65;125.25;;;1.20;99.90;;;;;;5056940;28;20029;-52
2022/03/23 00:29:26;;;;;;;303.38;129.50;;;1.10;99.90;;;;;;5056849;28;20033;-52
2022/03/23 00:31:52;;;;;;;330.13;133.32;;;1.00;99.90;;;;;;5056758;28;20048;-52
2022/03/23 00:34:17;;;;;;;330.40;133.40;;;1.00;99.90;;;;;;5056654;28;20037;-52
2022/03/23 00:36:44;;;;;;;298.23;129.25;;;1.00;99.90;;;;;;5055337;28;20041;-52
2022/03/23 00:39:10;;;;;;;352.35;148.85;;;1.00;99.90;;;;;;5055444;28;20040;-52
2022/03/23 00:41:39;;;;;;;311.63;136.70;;;1.10;99.90;;;;;;5056789;28;20045;-52
2022/03/23 00:44:06;;;;;;;314.25;136.60;;;1.20;99.90;;;;;;5055391;28;20024;-52
2022/03/23 00:46:32;;;;;;;303.80;129.13;;;1.30;99.90;;;;;;5056501;28;20079;-52
2022/03/23 00:48:58;;;;;;;297.85;130.10;;;1.30;99.90;;;;;;5055034;28;20405;-52
2022/03/23 00:51:25;;;;;;;300.70;129.57;;;1.20;99.90;;;;;;5056585;28;20025;-52
2022/03/23 00:53:51;;;;;;;288.13;124.35;;;1.20;99.90;;;;;;5056522;28;20032;-52
2022/03/23 00:56:17;;;;;;;282.45;121.35;;;1.30;99.90;;;;;;5056119;28;20055;-52
2022/03/23 00:58:44;;;;;;;283.13;120.68;;;1.20;99.90;;;;;;5056300;28;20024;-52
2022/03/23 01:01:13;;;;;;;275.27;117.68;;;1.20;99.90;;;;;;5054718;28;20083;-52
2022/03/23 01:03:39;;;;;;;263.08;115.03;;;1.20;99.90;;;;;;5055001;28;20029;-52
2022/03/23 01:06:05;;;;;;;263.05;112.30;;;1.00;99.90;;;;;;5056328;28;20033;-52
2022/03/23 01:08:31;;;;;;;254.38;109.82;;;1.00;99.90;;;;;;5055938;28;20119;-52
2022/03/23 01:10:58;;;;;;;242.80;110.72;;;0.90;99.90;;;;;;5056125;28;20060;-52
2022/03/23 01:13:24;;;;;;;233.18;105.60;;;0.80;99.90;;;;;;5055807;28;20470;-52
2022/03/23 01:15:50;;;;;;;236.32;106.63;;;0.70;99.90;;;;;;5056115;28;20086;-52
2022/03/23 01:18:16;;;;;;;250.30;108.45;;;0.60;99.90;;;;;;5054705;28;20112;-52
2022/03/23 01:20:42;;;;;;;492.42;156.57;;;0.60;99.90;;;;;;5054801;28;20060;-52
2022/03/23 01:23:09;;;;;;;491.38;162.13;;;0.70;99.90;;;;;;5054616;28;20029;-52
2022/03/23 01:25:35;;;;;;;670.45;228.18;;;0.80;99.90;;;;;;5054486;28;20037;-52
2022/03/23 01:28:03;;;;;;;632.95;218.70;;;0.80;99.90;;;;;;5055814;28;20391;-52
2022/03/23 01:30:29;;;;;;;527.63;186.02;;;0.80;99.90;;;;;;5055977;28;20360;-52
2022/03/23 01:32:55;;;;;;;376.42;142.07;;;0.80;99.90;;;;;;5055585;28;20156;-52
2022/03/23 01:35:21;;;;;;;346.45;137.43;;;0.90;99.90;;;;;;5055659;28;20021;-52
2022/03/23 01:37:47;;;;;;;356.33;137.07;;;1.00;99.90;;;;;;5054298;28;20360;-52
2022/03/23 01:40:14;;;;;;;380.05;138.82;;;1.00;99.90;;;;;;5055835;28;20757;-52
2022/03/23 01:42:40;;;;;;;352.17;137.50;;;1.00;99.90;;;;;;5055465;28;20025;-52
2022/03/23 01:45:08;;;;;;;320.52;126.70;;;1.00;99.90;;;;;;5055264;28;20482;-52
2022/03/23 01:47:35;;;;;;;328.52;127.32;;;1.00;99.90;;;;;;5055657;28;20107;-52
2022/03/23 01:50:04;;;;;;;321.63;125.60;;;0.90;99.90;;;;;;5053932;28;20025;-52
2022/03/23 01:52:32;;;;;;;293.10;118.88;;;1.00;99.90;;;;;;5054314;28;20075;-52
2022/03/23 01:55:02;;;;;;;270.33;115.03;;;1.10;99.90;;;;;;5053760;28;20041;-52
2022/03/23 01:57:29;;;;;;;254.52;106.15;;;1.10;99.90;;;;;;5053698;28;20028;-52
2022/03/23 01:59:55;;;;;;;242.57;104.68;;;1.10;99.90;;;;;;5053867;28;20112;-52
2022/03/23 02:02:21;;;;;;;237.98;103.95;;;1.10;99.90;;;;;;5055113;28;20033;-52
2022/03/23 02:04:55;;;;;;;230.25;101.90;;;1.10;99.90;;;;;;5053799;28;20028;-52
2022/03/23 02:07:22;;;;;;;233.48;102.82;;;1.10;99.90;;;;;;5053907;28;20025;-52
2022/03/23 02:09:50;;;;;;;240.32;102.63;;;1.10;99.90;;;;;;5053731;28;20051;-52
2022/03/23 02:12:22;;;;;;;259.58;107.82;;;0.90;99.90;;;;;;5054839;28;20103;-52
2022/03/23 02:14:48;;;;;;;259.77;105.25;;;1.00;99.90;;;;;;5054917;28;20083;-52
2022/03/23 02:17:15;;;;;;;267.45;109.63;;;1.00;99.90;;;;;;5053515;28;20390;-52
2022/03/23 02:19:42;;;;;;;261.92;108.75;;;1.00;99.90;;;;;;5053543;28;20090;-52
2022/03/23 02:22:09;;;;;;;318.38;118.95;;;1.00;99.90;;;;;;5053474;28;20036;-52
2022/03/23 02:24:35;;;;;;;287.52;112.57;;;1.10;99.90;;;;;;5053597;28;20033;-52
2022/03/23 02:27:01;;;;;;;281.88;110.00;;;1.00;99.90;;;;;;5054153;28;20256;-52
2022/03/23 02:29:31;;;;;;;257.98;106.07;;;0.90;99.90;;;;;;5054712;28;20056;-52
2022/03/23 02:31:58;;;;;;;228.90;96.45;;;0.90;99.90;;;;;;5054556;28;20029;-52
2022/03/23 02:34:27;;;;;;;233.38;96.32;;;0.90;99.90;;;;;;5054425;28;20371;-52
2022/03/23 02:36:54;;;;;;;232.27;98.50;;;0.90;99.90;;;;;;5054462;28;20487;-52
2022/03/23 02:39:20;;;;;;;225.20;93.13;;;0.70;99.90;;;;;;5054564;28;20032;-52
2022/03/23 02:41:46;;;;;;;227.88;93.88;;;0.60;99.90;;;;;;5054662;28;20039;-52
2022/03/23 02:44:16;;;;;;;228.35;91.65;;;0.60;99.90;;;;;;5054416;28;20112;-52
2022/03/23 02:46:42;;;;;;;217.73;92.20;;;0.60;99.90;;;;;;5054407;28;20036;-52
2022/03/23 02:49:09;;;;;;;212.75;92.03;;;0.50;99.90;;;;;;5054250;28;20039;-52
2022/03/23 02:51:36;;;;;;;204.80;90.90;;;0.40;99.90;;;;;;5054350;28;20470;-52
2022/03/23 03:02:44;;;;;;;208.13;89.15;;;0.60;99.90;;;;;;5054247;28;20017;-52
2022/03/23 03:05:11;;;;;;;210.63;90.25;;;0.60;99.90;;;;;;5054483;28;20029;-52
2022/03/23 03:10:25;;;;;;;201.00;91.88;;;0.60;99.90;;;;;;5054187;28;20108;-52
2022/03/23 03:12:52;;;;;;;194.45;89.05;;;0.60;99.90;;;;;;5054110;28;20036;-52
2022/03/23 03:15:20;;;;;;;203.50;92.03;;;0.60;99.90;;;;;;5054219;28;20018;-52
2022/03/23 03:17:49;;;;;;;201.18;87.10;;;0.50;99.90;;;;;;5054384;28;20048;-52
2022/03/23 03:20:16;;;;;;;195.18;85.50;;;0.50;99.90;;;;;;5054374;28;20021;-52
2022/03/23 03:22:45;;;;;;;177.77;82.95;;;0.60;99.90;;;;;;5052767;28;20043;-52
2022/03/23 03:25:15;;;;;;;178.30;81.88;;;0.50;99.90;;;;;;5053906;28;20091;-52
2022/03/23 03:27:42;;;;;;;177.85;80.32;;;0.30;99.90;;;;;;5054673;28;20033;-52
2022/03/23 03:30:11;;;;;;;166.98;76.80;;;0.40;99.90;;;;;;5053992;28;20029;-52
2022/03/23 03:32:38;;;;;;;162.80;75.80;;;0.30;99.90;;;;;;5053977;28;20651;-52
2022/03/23 03:35:07;;;;;;;164.90;75.93;;;0.30;99.90;;;;;;5053850;28;20410;-52
2022/03/23 03:37:33;;;;;;;171.02;76.97;;;0.20;99.90;;;;;;5052887;28;20032;-52
2022/03/23 03:39:59;;;;;;;183.52;79.18;;;0.30;99.90;;;;;;5058046;28;20060;-52
2022/03/23 03:42:26;;;;;;;170.07;78.45;;;0.30;99.90;;;;;;5057902;28;20056;-52
2022/03/23 03:44:52;;;;;;;173.57;78.13;;;0.30;99.90;;;;;;5057751;28;20067;-52
2022/03/23 03:47:19;;;;;;;177.55;79.97;;;0.40;99.90;;;;;;5058045;28;20358;-52
2022/03/23 03:49:46;;;;;;;182.50;81.18;;;0.20;99.90;;;;;;5057703;28;20021;-52
2022/03/23 03:52:13;;;;;;;163.90;77.60;;;0.10;99.90;;;;;;5057814;28;20075;-52
2022/03/23 03:54:39;;;;;;;170.80;78.25;;;0.10;99.90;;;;;;5055923;28;20036;-52
2022/03/23 03:57:05;;;;;;;195.00;83.93;;;0.10;99.90;;;;;;5057401;28;20386;-52
2022/03/23 03:59:31;;;;;;;209.48;90.43;;;0.00;99.90;;;;;;5057624;28;20041;-52
2022/03/23 04:01:57;;;;;;;191.27;81.47;;;0.00;99.90;;;;;;5057645;28;20114;-52
2022/03/23 04:04:23;;;;;;;148.40;63.75;;;0.00;99.90;;;;;;5057455;28;20029;-52
2022/03/23 04:06:49;;;;;;;144.90;65.53;;;-0.20;99.90;;;;;;5057702;28;20027;-52
2022/03/23 04:09:15;;;;;;;148.15;65.97;;;-0.20;99.90;;;;;;5057169;28;20120;-52
2022/03/23 04:11:41;;;;;;;158.32;70.05;;;-0.40;99.90;;;;;;5057289;28;20036;-52
2022/03/23 04:14:07;;;;;;;168.13;74.93;;;-0.50;99.90;;;;;;5057017;28;20540;-52
2022/03/23 04:16:33;;;;;;;190.98;82.60;;;-0.50;99.90;;;;;;5057229;28;20025;-52
2022/03/23 04:18:59;;;;;;;188.23;81.47;;;-0.40;99.90;;;;;;5057034;28;20079;-52
2022/03/23 04:21:25;;;;;;;187.90;79.80;;;-0.50;99.90;;;;;;5056899;28;20025;-52
2022/03/23 04:23:50;;;;;;;190.38;81.88;;;-0.40;99.90;;;;;;5057247;28;20036;-52
2022/03/23 04:26:16;;;;;;;183.63;82.82;;;-0.60;99.90;;;;;;5057096;28;20029;-52
2022/03/23 04:28:45;;;;;;;191.35;82.18;;;-0.70;99.90;;;;;;5056949;28;20044;-52
2022/03/23 04:31:12;;;;;;;176.50;76.40;;;-0.60;99.90;;;;;;5056932;28;20045;-52
2022/03/23 04:33:37;;;;;;;160.63;73.80;;;-0.60;99.90;;;;;;5056622;28;20033;-52
2022/03/23 04:36:04;;;;;;;173.27;76.90;;;-0.70;99.90;;;;;;5056716;28;20364;-52
2022/03/23 04:38:30;;;;;;;193.13;87.07;;;-0.80;99.90;;;;;;5056789;28;20486;-52
2022/03/23 04:40:56;;;;;;;196.15;89.07;;;-0.70;99.90;;;;;;5056621;28;20021;-52
2022/03/23 04:43:22;;;;;;;195.10;84.68;;;-0.70;99.90;;;;;;5056970;28;20116;-52
2022/03/23 04:45:48;;;;;;;180.63;83.82;;;-0.70;99.90;;;;;;5057046;28;20021;-52
2022/03/23 04:48:13;;;;;;;190.65;86.50;;;-0.70;99.90;;;;;;5056303;28;20029;-52
2022/03/23 04:50:40;;;;;;;179.23;82.85;;;-0.60;99.90;;;;;;5056267;28;20048;-52
2022/03/23 04:53:06;;;;;;;184.63;83.82;;;-0.50;99.90;;;;;;5056549;28;20036;-52
2022/03/23 04:55:32;;;;;;;186.32;87.68;;;-0.50;99.90;;;;;;5056040;28;20398;-52
2022/03/23 04:58:01;;;;;;;183.10;80.97;;;-0.50;99.90;;;;;;5056278;28;20038;-52
2022/03/23 05:00:28;;;;;;;168.45;77.60;;;-0.50;99.90;;;;;;5056338;28;20029;-52
2022/03/23 05:02:53;;;;;;;163.45;76.65;;;-0.50;99.90;;;;;;5056329;28;20036;-52
2022/03/23 05:05:20;;;;;;;176.07;80.10;;;-0.40;99.90;;;;;;5056290;28;20029;-52
2022/03/23 05:07:46;;;;;;;175.10;79.75;;;-0.20;99.90;;;;;;5056517;28;20024;-52
2022/03/23 05:10:13;;;;;;;186.57;80.50;;;0.10;99.90;;;;;;5055894;28;20021;-52
2022/03/23 05:12:42;;;;;;;180.05;80.63;;;0.40;99.90;;;;;;5056044;28;20028;-52
2022/03/23 05:15:09;;;;;;;179.23;78.07;;;0.70;99.90;;;;;;5055983;28;20572;-52
2022/03/23 05:17:36;;;;;;;166.43;78.15;;;0.90;99.90;;;;;;5056076;28;20033;-52
2022/03/23 05:20:04;;;;;;;170.00;77.65;;;1.10;99.90;;;;;;5056070;28;20325;-52
2022/03/23 05:22:30;;;;;;;175.85;77.68;;;1.30;99.90;;;;;;5055835;28;20033;-52
2022/03/23 05:24:56;;;;;;;165.18;73.25;;;1.30;99.90;;;;;;5055704;28;20035;-52
2022/03/23 05:27:23;;;;;;;149.45;71.90;;;1.30;99.90;;;;;;5055788;28;20402;-52
2022/03/23 05:29:49;;;;;;;147.82;69.25;;;1.40;99.90;;;;;;5055811;28;20068;-52
2022/03/23 05:32:18;;;;;;;157.90;73.78;;;1.40;99.90;;;;;;5055500;28;20025;-52
2022/03/23 05:34:45;;;;;;;164.80;74.38;;;1.50;99.90;;;;;;5055684;28;20112;-52
2022/03/23 05:37:12;;;;;;;153.50;70.50;;;1.60;99.90;;;;;;5055739;28;20033;-52
2022/03/23 05:39:39;;;;;;;209.70;85.50;;;1.80;99.90;;;;;;5055628;28;20033;-52
2022/03/23 05:42:07;;;;;;;201.57;84.70;;;2.00;99.90;;;;;;5055566;28;20049;-52
2022/03/23 05:44:33;;;;;;;202.27;84.28;;;2.20;99.90;;;;;;5055331;28;20025;-52
2022/03/23 05:47:01;;;;;;;186.23;83.05;;;2.40;99.90;;;;;;5055485;28;20033;-52
2022/03/23 05:49:28;;;;;;;203.50;87.82;;;2.50;99.90;;;;;;5055311;28;20441;-52
2022/03/23 05:51:54;;;;;;;247.02;102.30;;;2.40;99.90;;;;;;5054052;28;20637;-52
2022/03/23 05:54:20;;;;;;;222.48;99.55;;;2.50;99.90;;;;;;5055221;28;20340;-52
2022/03/23 05:56:50;;;;;;;235.40;101.10;;;2.60;99.90;;;;;;5055182;28;20078;-52
2022/03/23 05:59:17;;;;;;;238.25;107.35;;;2.90;99.90;;;;;;5054950;28;20024;-52
2022/03/23 06:01:45;;;;;;;247.85;108.10;;;3.10;99.90;;;;;;5054276;28;20063;-52
2022/03/23 06:04:12;;;;;;;240.88;107.03;;;3.20;99.90;;;;;;5055215;28;20078;-52
2022/03/23 06:06:42;;;;;;;260.48;110.65;;;3.40;99.90;;;;;;5054832;28;20033;-52
2022/03/23 06:09:10;;;;;;;248.32;108.65;;;3.60;99.90;;;;;;5054588;28;20040;-53
2022/03/23 06:11:40;;;;;;;245.43;107.72;;;3.80;99.90;;;;;;5054887;28;20053;-52
2022/03/23 06:14:07;;;;;;;240.82;106.07;;;4.10;99.90;;;;;;5054522;28;20029;-52
2022/03/23 06:16:33;;;;;;;231.48;103.20;;;4.20;99.90;;;;;;5050808;28;20066;-53
2022/03/23 06:18:59;;;;;;;229.18;103.05;;;4.40;99.90;;;;;;5044008;28;20030;-53
2022/03/23 06:21:26;;;;;;;234.55;103.75;;;4.50;99.90;;;;;;5043106;28;20032;-53
2022/03/23 06:23:58;;;;;;;230.43;99.03;;;4.70;99.90;;;;;;5044040;28;20386;-52
2022/03/23 06:26:25;;;;;;;214.55;96.18;;;5.00;99.90;;;;;;5044080;28;20029;-52
2022/03/23 06:28:53;;;;;;;220.75;98.35;;;5.20;99.90;;;;;;5050566;28;20028;-52
2022/03/23 06:31:21;;;;;;;225.82;95.90;;;5.30;99.90;;;;;;5044554;28;20032;-52
2022/03/23 06:33:47;;;;;;;212.13;95.85;;;5.40;99.90;;;;;;5052997;28;20264;-52
2022/03/23 06:36:13;;;;;;;212.90;98.85;;;5.60;99.90;;;;;;5050229;28;20033;-52
2022/03/23 06:38:40;;;;;;;197.93;93.40;;;5.70;99.20;;;;;;5053811;28;20079;-52
2022/03/23 06:41:09;;;;;;;199.15;90.82;;;6.00;98.50;;;;;;5052178;28;20501;-52
2022/03/23 06:43:37;;;;;;;198.68;94.13;;;6.50;98.30;;;;;;5051186;28;20352;-52
2022/03/23 06:46:08;;;;;;;193.15;93.22;;;6.70;96.70;;;;;;5049306;28;20103;-52
2022/03/23 06:48:36;;;;;;;208.10;91.78;;;6.90;95.80;;;;;;5047735;28;20394;-54
2022/03/23 06:51:06;;;;;;;203.75;95.55;;;7.30;95.00;;;;;;5041552;28;20031;-54
2022/03/23 06:53:33;;;;;;;202.83;95.73;;;7.50;94.50;;;;;;5043917;28;20424;-53
2022/03/23 06:56:00;;;;;;;205.20;96.05;;;7.70;93.90;;;;;;5053136;28;20045;-53
2022/03/23 06:58:27;;;;;;;198.88;90.15;;;7.60;94.00;;;;;;5044890;28;20037;-53
2022/03/23 07:01:00;;;;;;;216.32;92.80;;;7.90;93.10;;;;;;5043476;28;20088;-53
2022/03/23 07:03:27;;;;;;;193.07;92.50;;;8.40;92.60;;;;;;5035661;28;20433;-53
2022/03/23 07:05:53;;;;;;;183.15;87.78;;;8.70;91.00;;;;;;5046115;28;20033;-53
2022/03/23 07:11:08;;;;;;;187.82;89.15;;;8.80;92.10;;;;;;5039525;28;20028;-53
2022/03/23 07:13:43;;;;;;;177.52;86.28;;;8.90;90.20;;;;;;5043463;28;20029;-53
2022/03/23 07:16:10;;;;;;;179.68;86.55;;;9.20;90.00;;;;;;5056502;28;20374;-53
2022/03/23 07:18:37;;;;;;;203.48;96.30;;;9.40;86.20;;;;;;5053380;28;20375;-53
2022/03/23 07:21:16;;;;;;;194.40;93.15;;;9.70;85.50;;;;;;5052181;28;20037;-53
2022/03/23 07:23:46;;;;;;;187.05;88.78;;;10.00;86.20;;;;;;5056150;28;20029;-53
2022/03/23 07:26:16;;;;;;;193.20;88.78;;;10.20;81.60;;;;;;5054045;28;20071;-53
2022/03/23 07:36:16;;;;;;;161.70;81.80;;;10.60;72.20;;;;;;5046442;28;20171;-53
2022/03/23 07:38:43;;;;;;;159.75;82.65;;;11.30;72.00;;;;;;5042483;28;20029;-53
2022/03/23 07:41:11;;;;;;;141.63;75.30;;;11.60;66.90;;;;;;5054586;28;20029;-53
2022/03/23 07:43:38;;;;;;;154.20;75.95;;;11.60;63.60;;;;;;5046626;28;20112;-53
2022/03/23 07:46:04;;;;;;;151.27;78.43;;;12.30;60.80;;;;;;5054091;28;20035;-53
2022/03/23 07:48:31;;;;;;;140.35;71.72;;;12.40;54.50;;;;;;5053454;28;20025;-53
2022/03/23 07:50:57;;;;;;;151.75;73.13;;;12.70;52.90;;;;;;5050382;28;20768;-54
2022/03/23 07:53:23;;;;;;;126.72;65.18;;;13.10;52.60;;;;;;5056408;28;20036;-53
2022/03/23 07:55:53;;;;;;;141.05;67.18;;;13.50;51.50;;;;;;5047198;28;20132;-53
2022/03/23 07:58:20;;;;;;;138.98;68.97;;;13.90;46.80;;;;;;5051291;28;20352;-53
2022/03/23 08:00:47;;;;;;;128.15;64.15;;;14.00;44.80;;;;;;5056622;28;20024;-53
2022/03/23 08:03:14;;;;;;;136.40;63.90;;;14.20;43.00;;;;;;5055919;28;20401;-53
2022/03/23 08:05:42;;;;;;;121.75;61.42;;;14.20;42.20;;;;;;5057581;28;20029;-53
2022/03/23 08:08:10;;;;;;;124.00;56.88;;;14.20;40.20;;;;;;5054860;28;20082;-53
2022/03/23 08:10:43;;;;;;;120.30;55.58;;;14.30;42.50;;;;;;5054658;28;20025;-53
2022/03/23 08:13:10;;;;;;;117.72;61.05;;;14.80;39.60;;;;;;5051477;28;20032;-53
2022/03/23 08:15:36;;;;;;;115.15;60.17;;;15.00;40.30;;;;;;5055181;28;20029;-53
2022/03/23 08:18:04;;;;;;;123.95;58.70;;;15.60;38.50;;;;;;5053324;28;20080;-53
2022/03/23 08:20:33;;;;;;;112.32;57.67;;;15.80;37.40;;;;;;5044377;28;20025;-53
2022/03/23 08:23:00;;;;;;;108.93;58.30;;;15.70;36.10;;;;;;5044143;28;20108;-53
2022/03/23 08:25:30;;;;;;;106.32;53.90;;;15.70;34.80;;;;;;5053663;28;20035;-54
2022/03/23 08:28:00;;;;;;;88.72;50.10;;;15.80;36.70;;;;;;5055193;28;20494;-53
2022/03/23 08:30:27;;;;;;;110.22;55.70;;;16.40;35.50;;;;;;5051494;28;20037;-54
2022/03/23 08:32:54;;;;;;;112.10;57.15;;;16.40;34.90;;;;;;5053134;28;20021;-53
2022/03/23 08:35:26;;;;;;;108.07;56.53;;;16.70;34.90;;;;;;5048121;28;20021;-54
2022/03/23 08:37:53;;;;;;;98.93;57.47;;;16.60;33.90;;;;;;5048227;28;20033;-54
2022/03/23 08:40:20;;;;;;;118.65;61.70;;;16.80;35.10;;;;;;5053895;28;20021;-54
2022/03/23 08:42:47;;;;;;;128.40;64.57;;;17.00;36.40;;;;;;5055276;28;20059;-54
2022/03/23 08:45:20;;;;;;;111.88;59.83;;;17.60;34.80;;;;;;5055814;28;20383;-54
2022/03/23 08:47:48;;;;;;;113.20;57.80;;;18.00;32.80;;;;;;5052308;28;20158;-54
2022/03/23 08:50:16;;;;;;;96.57;57.47;;;17.80;32.10;;;;;;5055313;28;20032;-54
2022/03/23 08:52:43;;;;;;;96.93;54.65;;;17.60;31.50;;;;;;5056398;28;20033;-54
2022/03/23 08:55:14;;;;;;;110.93;53.33;;;17.80;31.80;;;;;;5053242;28;20049;-54
2022/03/23 08:57:47;;;;;;;103.00;52.58;;;18.00;31.80;;;;;;5051064;28;20029;-54
2022/03/23 09:00:14;;;;;;;81.18;48.65;;;18.20;31.00;;;;;;5044465;28;20032;-54
2022/03/23 09:02:41;;;;;;;71.65;42.58;;;18.80;30.40;;;;;;5050359;28;20033;-54
2022/03/23 09:05:10;;;;;;;83.55;46.33;;;19.10;29.10;;;;;;5037953;28;20107;-54
2022/03/23 09:07:38;;;;;;;76.90;40.33;;;19.40;28.50;;;;;;5036843;28;20045;-54
2022/03/23 09:10:06;;;;;;;88.30;50.75;;;20.20;27.90;;;;;;5040907;28;20339;-54
2022/03/23 09:12:33;;;;;;;68.75;43.20;;;19.90;26.40;;;;;;5054731;28;20115;-54
2022/03/23 09:14:59;;;;;;;64.95;40.40;;;19.20;26.60;;;;;;5052699;28;20032;-54
2022/03/23 09:17:25;;;;;;;76.15;44.42;;;18.70;26.20;;;;;;5055810;28;20556;-54
2022/03/23 09:19:51;;;;;;;73.10;44.47;;;18.90;27.00;;;;;;5056259;28;20100;-54
2022/03/23 09:22:18;;;;;;;74.00;39.92;;;18.80;26.40;;;;;;5056289;28;20025;-54
2022/03/23 09:24:44;;;;;;;60.03;36.95;;;18.60;27.30;;;;;;5056237;28;20526;-54
2022/03/23 09:27:10;;;;;;;56.88;35.33;;;19.40;26.30;;;;;;5056311;28;20059;-54
2022/03/23 09:29:36;;;;;;;49.55;30.77;;;19.90;26.10;;;;;;5055690;28;20064;-54
2022/03/23 09:32:09;;;;;;;55.80;31.20;;;19.40;24.70;;;;;;5055132;28;20033;-54
2022/03/23 09:34:35;;;;;;;55.70;29.73;;;18.90;24.60;;;;;;5055589;28;20039;-54
2022/03/23 09:39:45;;;;;;;48.33;31.25;;;20.10;25.70;;;;;;5053681;28;20032;-54
2022/03/23 09:42:12;;;;;;;54.80;33.40;;;20.30;23.90;;;;;;5045737;28;20037;-54
2022/03/23 09:44:40;;;;;;;43.25;29.00;;;20.90;23.60;;;;;;5041409;28;20028;-54
2022/03/23 09:47:09;;;;;;;55.28;29.88;;;20.70;23.10;;;;;;5051931;28;20462;-54
2022/03/23 09:49:35;;;;;;;54.28;31.33;;;20.00;23.10;;;;;;5043801;28;20025;-54
2022/03/23 09:52:01;;;;;;;57.70;33.55;;;20.50;23.80;;;;;;5045900;28;20044;-54
2022/03/23 09:54:28;;;;;;;49.28;27.77;;;20.70;23.30;;;;;;5049541;28;20032;-54
2022/03/23 09:56:54;;;;;;;47.97;29.33;;;21.40;22.90;;;;;;5051230;28;20033;-54
2022/03/23 09:59:24;;;;;;;47.55;32.10;;;21.30;22.20;;;;;;5046048;28;20363;-54
2022/03/23 10:02:02;;;;;;;52.25;32.35;;;21.20;22.40;;;;;;5053596;28;20032;-54
2022/03/23 10:04:49;;;;;;;52.00;30.73;;;20.70;22.80;;;;;;5051856;28;20027;-54
2022/03/23 10:07:25;;;;;;;55.88;33.03;;;20.90;22.40;;;;;;5051307;28;20378;-54
2022/03/23 10:10:25;;;;;;;57.08;31.70;;;20.70;22.70;;;;;;5053671;28;20032;-54
2022/03/23 10:13:12;;;;;;;65.43;34.07;;;21.10;23.00;;;;;;5048714;28;20029;-54
2022/03/23 10:16:12;;;;;;;66.80;35.25;;;21.20;23.10;;;;;;5054093;28;20060;-54
2022/03/23 10:18:59;;;;;;;75.00;37.43;;;21.30;22.60;;;;;;5051519;28;20429;-54
2022/03/23 10:21:36;;;;;;;61.90;36.10;;;21.20;23.20;;;;;;5054662;28;20261;-54
2022/03/23 10:24:02;;;;;;;65.00;35.70;;;21.10;24.00;;;;;;5047595;28;20033;-54
2022/03/23 10:26:31;;;;;;;56.92;34.17;;;21.10;24.00;;;;;;5047149;28;20044;-54
2022/03/23 10:28:59;;;;;;;57.22;33.03;;;21.20;23.50;;;;;;5049864;28;20037;-54
2022/03/23 10:31:27;;;;;;;55.33;32.42;;;22.10;23.60;;;;;;5044734;28;20055;-54
2022/03/23 10:34:08;;;;;;;49.53;30.55;;;22.30;22.80;;;;;;5040719;28;20108;-54
2022/03/23 10:36:40;;;;;;;;;;;21.90;22.30;;;;;;5039852;28;20114;-54
2022/03/23 10:39:12;;;;;;;50.97;32.33;;;21.90;22.50;;;;;;5039516;28;19956;-54
2022/03/23 10:41:39;;;;;;;59.92;33.92;;;22.10;22.10;;;;;;5045286;28;20048;-54
2022/03/23 10:44:16;;;;;;;53.92;32.85;;;23.00;22.00;;;;;;5046344;28;20103;-54
2022/03/23 10:46:43;;;;;;;52.13;31.60;;;23.10;21.90;;;;;;5037903;28;20047;-55
2022/03/23 10:49:10;;;;;;;48.83;30.83;;;22.90;21.10;;;;;;5054769;28;20024;-54
2022/03/23 10:51:37;;;;;;;50.60;30.55;;;23.00;21.20;;;;;;5053663;28;20083;-54
2022/03/23 10:54:18;;;;;;;56.88;33.08;;;23.00;22.10;;;;;;5053803;28;20036;-54
2022/03/23 10:56:44;;;;;;;;;;;22.80;21.50;;;;;;5043436;28;20055;-54
2022/03/23 10:59:23;;;;;;;47.70;29.30;;;23.30;21.40;;;;;;5048560;28;19971;-54
2022/03/23 11:02:04;;;;;;;53.92;30.77;;;23.00;21.30;;;;;;5053767;28;20494;-54
2022/03/23 11:04:54;;;;;;;45.42;27.88;;;22.50;21.90;;;;;;5043816;28;20017;-54
2022/03/23 11:07:29;;;;;;;49.70;29.50;;;22.90;22.10;;;;;;5051492;28;20104;-54
2022/03/23 11:15:49;;;;;;;50.25;30.60;;;23.90;20.80;;;;;;5047596;28;20120;-53
2022/03/23 11:18:20;;;;;;;36.50;26.77;;;23.90;20.50;;;;;;5049028;28;20033;-53
2022/03/23 11:20:49;;;;;;;56.65;28.30;;;24.50;20.20;;;;;;5045911;28;20017;-52
2022/03/23 11:23:17;;;;;;;49.25;28.48;;;24.90;21.00;;;;;;5052188;28;20654;-53
2022/03/23 11:25:44;;;;;;;54.42;28.55;;;25.00;20.50;;;;;;5053408;28;20546;-53
2022/03/23 11:28:12;;;;;;;57.50;31.15;;;25.00;20.10;;;;;;5053786;28;20502;-52
2022/03/23 11:30:38;;;;;;;48.88;28.55;;;24.40;19.70;;;;;;5051275;28;20035;-52
2022/03/23 11:33:07;;;;;;;55.80;30.23;;;23.90;20.30;;;;;;5053405;28;20033;-52
2022/03/23 11:35:35;;;;;;;52.22;29.42;;;24.30;20.70;;;;;;5053340;28;20085;-52
2022/03/23 11:38:04;;;;;;;59.40;30.17;;;24.20;20.30;;;;;;5052228;28;20082;-52
2022/03/23 11:40:31;;;;;;;44.28;28.70;;;23.70;20.70;;;;;;5052755;28;20029;-52
2022/03/23 11:42:58;;;;;;;47.63;28.13;;;23.40;20.90;;;;;;5053125;28;20032;-52
2022/03/23 11:45:24;;;;;;;43.83;28.60;;;23.70;21.50;;;;;;5053399;28;20021;-52
2022/03/23 11:47:55;;;;;;;42.25;27.90;;;24.40;21.40;;;;;;5053397;28;20111;-52
2022/03/23 11:50:55;;;;;;;42.53;26.40;;;24.80;20.90;;;;;;5052925;28;20475;-52
2022/03/23 11:53:37;;;;;;;44.22;26.75;;;24.50;20.20;;;;;;5054170;28;20025;-52
2022/03/23 11:56:05;;;;;;;35.33;25.17;;;24.00;19.90;;;;;;5052472;28;20128;-53
2022/03/23 11:58:38;;;;;;;42.25;25.60;;;24.40;20.50;;;;;;5053518;28;20028;-53
2022/03/23 12:01:12;;;;;;;45.60;25.13;;;24.70;20.20;;;;;;5057747;28;20143;-53
2022/03/23 12:03:44;;;;;;;38.90;25.25;;;24.90;19.40;;;;;;5037896;28;20463;-53
2022/03/23 12:06:41;;;;;;;41.53;24.88;;;24.90;19.80;;;;;;5053394;28;20025;-53
2022/03/23 12:09:30;;;;;;;50.88;26.27;;;25.10;20.00;;;;;;5046023;28;20040;-53
2022/03/23 12:12:01;;;;;;;39.45;24.88;;;24.80;19.10;;;;;;5057330;28;20037;-53
2022/03/23 12:14:31;;;;;;;43.20;26.30;;;24.90;19.50;;;;;;5057943;28;20033;-53
2022/03/23 12:16:57;;;;;;;64.75;28.35;;;24.20;19.20;;;;;;5056377;28;20612;-53
2022/03/23 12:19:26;;;;;;;47.88;27.15;;;24.30;19.60;;;;;;5057176;28;20061;-53
2022/03/23 12:22:06;;;;;;;47.85;27.65;;;24.50;20.30;;;;;;5056896;28;20025;-53
2022/03/23 12:24:41;;;;;;;59.72;26.38;;;25.20;20.30;;;;;;5056235;28;20089;-53
2022/03/23 12:27:43;;;;;;;40.88;24.13;;;25.60;19.70;;;;;;5055771;28;20025;-53
2022/03/23 12:30:24;;;;;;;41.22;23.17;;;25.70;19.60;;;;;;5056432;28;20033;-53
2022/03/23 12:32:51;;;;;;;48.45;26.65;;;25.80;19.50;;;;;;5056087;28;20033;-53
2022/03/23 12:35:34;;;;;;;44.67;23.42;;;25.50;19.50;;;;;;5044477;28;20037;-53
2022/03/23 12:38:02;;;;;;;47.63;23.42;;;25.00;18.60;;;;;;5051403;28;20425;-53
2022/03/23 12:40:41;;;;;;;39.25;24.60;;;24.70;19.20;;;;;;5042620;28;20357;-53
2022/03/23 12:43:08;;;;;;;43.38;25.38;;;24.90;20.10;;;;;;5036630;28;20036;-53
2022/03/23 12:45:39;;;;;;;28.65;19.10;;;25.30;20.30;;;;;;5047579;28;20021;-53
2022/03/23 12:59:22;;;;;;;29.38;17.13;;;24.70;18.30;;;;;;5054410;28;20086;-53
2022/03/23 13:02:17;;;;;;;31.15;19.08;;;24.70;18.30;;;;;;5056065;28;20033;-53
2022/03/23 13:04:43;;;;;;;28.25;16.38;;;24.60;18.70;;;;;;5055833;28;20083;-53
2022/03/23 13:07:27;;;;;;;28.65;15.77;;;24.50;19.10;;;;;;5056088;28;20067;-53
2022/03/23 13:09:58;;;;;;;37.97;17.95;;;24.80;18.80;;;;;;5055033;28;20033;-53
2022/03/23 13:12:27;;;;;;;23.15;13.13;;;24.60;18.50;;;;;;5052438;28;20021;-53